createdAt,value
2023-03-13T00:00:33.114Z,11.60
2023-03-13T00:01:33.070Z,15.00
2023-03-13T00:02:33.152Z,12.00
2023-03-13T00:03:33.052Z,13.30
2023-03-13T00:04:33.112Z,15.50
2023-03-13T00:05:33.021Z,11.70
2023-03-13T00:06:33.051Z,11.80
2023-03-13T00:07:33.022Z,12.00
2023-03-13T00:08:33.026Z,18.30
2023-03-13T00:09:32.988Z,13.50
2023-03-13T00:10:32.963Z,14.90
2023-03-13T00:11:32.994Z,15.00
2023-03-13T00:12:33.154Z,19.40
2023-03-13T00:13:32.960Z,12.70
2023-03-13T00:14:32.924Z,13.20
2023-03-13T00:15:32.911Z,11.40
2023-03-13T00:16:32.942Z,17.50
2023-03-13T00:17:32.893Z,14.60
2023-03-13T00:18:32.920Z,14.10
2023-03-13T00:19:32.893Z,15.00
2023-03-13T00:20:32.871Z,12.10
2023-03-13T00:21:32.849Z,18.60
2023-03-13T00:22:34.503Z,15.80
2023-03-13T00:23:32.829Z,13.60
2023-03-13T00:24:32.833Z,10.20
2023-03-13T00:25:32.793Z,14.90
2023-03-13T00:26:32.794Z,15.10
2023-03-13T00:27:32.814Z,12.70
2023-03-13T00:28:32.960Z,11.30
2023-03-13T00:29:32.828Z,14.60
2023-03-13T00:30:32.826Z,16.80
2023-03-13T00:31:32.844Z,11.00
2023-03-13T00:32:32.923Z,13.30
2023-03-13T00:33:32.709Z,13.70
2023-03-13T00:34:32.713Z,10.50
2023-03-13T00:35:32.768Z,13.40
2023-03-13T00:36:32.683Z,13.60
2023-03-13T00:37:32.718Z,13.70
2023-03-13T00:38:32.669Z,12.30
2023-03-13T00:39:32.663Z,17.00
2023-03-13T00:40:32.658Z,13.30
2023-03-13T00:41:32.634Z,15.10
2023-03-13T00:42:32.605Z,13.60
2023-03-13T00:43:32.646Z,13.90
2023-03-13T00:44:32.615Z,12.00
2023-03-13T00:45:32.585Z,12.00
2023-03-13T00:46:32.624Z,14.10
2023-03-13T00:47:32.560Z,16.00
2023-03-13T00:48:32.536Z,16.10
2023-03-13T00:49:32.558Z,12.60
2023-03-13T00:50:32.532Z,14.10
2023-03-13T00:51:32.506Z,14.50
2023-03-13T00:52:32.500Z,14.70
2023-03-13T00:53:32.481Z,14.00
2023-03-13T00:54:32.506Z,13.60
2023-03-13T00:55:32.473Z,15.20
2023-03-13T00:56:32.461Z,15.40
2023-03-13T00:57:32.440Z,12.10
2023-03-13T00:58:32.426Z,14.90
2023-03-13T00:59:32.468Z,14.90
2023-03-13T01:00:32.408Z,16.40
2023-03-13T01:01:32.407Z,14.80
2023-03-13T01:02:32.547Z,16.80
2023-03-13T01:03:32.457Z,13.40
2023-03-13T01:04:32.382Z,13.40
2023-03-13T01:05:32.364Z,12.90
2023-03-13T01:06:32.362Z,15.30
2023-03-13T01:07:32.333Z,13.70
2023-03-13T01:08:32.330Z,15.20
2023-03-13T01:09:32.339Z,18.10
2023-03-13T01:10:32.312Z,13.90
2023-03-13T01:11:32.287Z,15.10
2023-03-13T01:12:32.307Z,13.10
2023-03-13T01:13:32.268Z,17.10
2023-03-13T01:14:32.258Z,15.90
2023-03-13T01:15:32.311Z,14.80
2023-03-13T01:16:32.277Z,16.20
2023-03-13T01:17:32.246Z,14.90
2023-03-13T01:18:32.231Z,11.50
2023-03-13T01:19:32.202Z,14.50
2023-03-13T01:20:32.213Z,15.20
2023-03-13T01:21:32.196Z,11.90
2023-03-13T01:22:32.199Z,14.60
2023-03-13T01:23:39.194Z,11.50
2023-03-13T01:24:32.152Z,11.70
2023-03-13T01:25:32.129Z,12.30
2023-03-13T01:26:32.118Z,11.70
2023-03-13T01:27:32.129Z,13.90
2023-03-13T01:28:32.139Z,15.40
2023-03-13T01:29:32.120Z,13.40
2023-03-13T01:30:32.081Z,13.40
2023-03-13T01:31:32.178Z,13.10
2023-03-13T01:32:32.186Z,14.00
2023-03-13T01:33:32.205Z,15.60
2023-03-13T01:34:32.037Z,14.10
2023-03-13T01:35:32.120Z,12.30
2023-03-13T01:36:32.023Z,14.40
2023-03-13T01:37:32.046Z,15.70
2023-03-13T01:38:32.013Z,14.10
2023-03-13T01:39:31.982Z,15.80
2023-03-13T01:40:31.982Z,14.70
2023-03-13T01:41:32.008Z,12.70
2023-03-13T01:42:31.962Z,11.80
2023-03-13T01:43:31.939Z,13.20
2023-03-13T01:44:31.931Z,12.60
2023-03-13T01:45:31.908Z,10.00
2023-03-13T01:46:31.981Z,15.20
2023-03-13T01:47:31.926Z,13.90
2023-03-13T01:48:31.882Z,13.70
2023-03-13T01:49:31.868Z,10.00
2023-03-13T01:50:31.853Z,13.00
2023-03-13T01:51:31.871Z,12.40
2023-03-13T01:52:31.871Z,13.60
2023-03-13T01:53:31.825Z,17.20
2023-03-13T01:54:31.812Z,13.80
2023-03-13T01:55:31.812Z,14.00
2023-03-13T01:56:31.815Z,10.10
2023-03-13T01:57:31.803Z,12.80
2023-03-13T01:58:31.765Z,11.90
2023-03-13T01:59:31.797Z,13.20
2023-03-13T02:00:31.741Z,14.10
2023-03-13T02:01:31.786Z,14.10
2023-03-13T02:02:31.778Z,12.80
2023-03-13T02:03:31.747Z,10.00
2023-03-13T02:04:31.732Z,10.70
2023-03-13T02:05:31.701Z,13.80
2023-03-13T02:06:31.682Z,12.60
2023-03-13T02:07:31.678Z,17.10
2023-03-13T02:08:31.663Z,17.10
2023-03-13T02:09:31.675Z,13.60
2023-03-13T02:10:31.682Z,14.10
2023-03-13T02:11:31.622Z,12.50
2023-03-13T02:12:31.632Z,16.00
2023-03-13T02:13:31.612Z,13.10
2023-03-13T02:14:31.602Z,15.00
2023-03-13T02:15:31.583Z,11.00
2023-03-13T02:16:31.688Z,11.40
2023-03-13T02:17:31.582Z,12.00
2023-03-13T02:18:31.550Z,13.40
2023-03-13T02:19:31.585Z,11.30
2023-03-13T02:20:31.527Z,14.00
2023-03-13T02:21:31.511Z,13.50
2023-03-13T02:22:31.519Z,11.30
2023-03-13T02:23:31.555Z,12.10
2023-03-13T02:24:31.506Z,15.10
2023-03-13T02:25:31.481Z,11.30
2023-03-13T02:26:31.500Z,12.90
2023-03-13T02:27:31.457Z,16.40
2023-03-13T02:28:31.446Z,16.10
2023-03-13T02:29:31.444Z,14.30
2023-03-13T02:30:31.464Z,14.40
2023-03-13T02:31:31.615Z,12.20
2023-03-13T02:32:31.457Z,14.50
2023-03-13T02:33:31.412Z,12.80
2023-03-13T02:34:31.372Z,10.90
2023-03-13T02:35:31.441Z,13.40
2023-03-13T02:36:31.355Z,14.50
2023-03-13T02:37:31.337Z,13.90
2023-03-13T02:38:31.339Z,13.70
2023-03-13T02:39:31.330Z,15.80
2023-03-13T02:40:31.312Z,13.30
2023-03-13T02:41:31.289Z,12.60
2023-03-13T02:42:31.277Z,10.70
2023-03-13T02:43:31.333Z,14.50
2023-03-13T02:44:31.285Z,15.50
2023-03-13T02:45:31.426Z,14.70
2023-03-13T02:46:31.266Z,14.20
2023-03-13T02:47:31.234Z,13.70
2023-03-13T02:48:31.236Z,14.30
2023-03-13T02:49:31.203Z,16.20
2023-03-13T02:50:31.210Z,14.60
2023-03-13T02:51:31.204Z,11.50
2023-03-13T02:52:31.224Z,13.40
2023-03-13T02:53:31.170Z,11.70
2023-03-13T02:54:31.170Z,11.50
2023-03-13T02:55:31.152Z,13.30
2023-03-13T02:56:31.140Z,12.40
2023-03-13T02:57:31.125Z,10.60
2023-03-13T02:58:33.567Z,10.80
2023-03-13T02:59:31.094Z,13.00
2023-03-13T03:00:31.163Z,13.40
2023-03-13T03:01:31.073Z,13.00
2023-03-13T03:02:31.106Z,16.30
2023-03-13T03:03:31.092Z,12.70
2023-03-13T03:04:31.044Z,12.20
2023-03-13T03:05:31.041Z,12.40
2023-03-13T03:06:31.016Z,15.90
2023-03-13T03:07:31.045Z,12.90
2023-03-13T03:08:30.998Z,13.80
2023-03-13T03:09:30.997Z,12.10
2023-03-13T03:10:30.972Z,13.50
2023-03-13T03:11:30.965Z,11.70
2023-03-13T03:12:30.986Z,12.20
2023-03-13T03:13:30.939Z,13.00
2023-03-13T03:14:30.947Z,10.70
2023-03-13T03:15:30.933Z,12.70
2023-03-13T03:16:31.027Z,14.40
2023-03-13T03:17:30.905Z,14.40
2023-03-13T03:18:32.620Z,11.60
2023-03-13T03:19:30.876Z,10.60
2023-03-13T03:20:30.873Z,16.20
2023-03-13T03:21:30.871Z,12.30
2023-03-13T03:22:30.877Z,11.00
2023-03-13T03:23:30.841Z,12.70
2023-03-13T03:24:30.832Z,16.40
2023-03-13T03:25:30.824Z,11.80
2023-03-13T03:26:30.817Z,14.30
2023-03-13T03:27:30.781Z,13.40
2023-03-13T03:28:30.777Z,15.30
2023-03-13T03:29:30.777Z,12.00
2023-03-13T03:30:30.780Z,13.50
2023-03-13T03:31:30.777Z,15.10
2023-03-13T03:32:30.807Z,13.80
2023-03-13T03:33:30.714Z,12.10
2023-03-13T03:34:30.721Z,11.60
2023-03-13T03:35:30.755Z,12.20
2023-03-13T03:36:30.681Z,13.60
2023-03-13T03:37:30.688Z,15.80
2023-03-13T03:38:30.662Z,14.40
2023-03-13T03:39:30.670Z,13.10
2023-03-13T03:40:30.657Z,13.80
2023-03-13T03:41:30.631Z,12.70
2023-03-13T03:42:30.630Z,12.60
2023-03-13T03:43:30.619Z,10.50
2023-03-13T03:44:30.598Z,13.00
2023-03-13T03:45:30.647Z,12.70
2023-03-13T03:46:30.574Z,11.80
2023-03-13T03:47:30.692Z,9.90
2023-03-13T03:48:30.550Z,9.90
2023-03-13T03:49:30.539Z,15.30
2023-03-13T03:50:30.544Z,12.00
2023-03-13T03:51:30.517Z,10.50
2023-03-13T03:52:30.496Z,16.90
2023-03-13T03:53:30.512Z,14.30
2023-03-13T03:54:30.487Z,12.00
2023-03-13T03:55:30.514Z,12.80
2023-03-13T03:56:30.481Z,16.20
2023-03-13T03:57:30.489Z,14.60
2023-03-13T03:58:30.442Z,15.40
2023-03-13T03:59:30.424Z,14.20
2023-03-13T04:00:30.436Z,14.40
2023-03-13T04:01:30.402Z,15.00
2023-03-13T04:02:30.472Z,13.50
2023-03-13T04:03:30.524Z,15.70
2023-03-13T04:04:30.372Z,14.30
2023-03-13T04:05:30.361Z,14.80
2023-03-13T04:06:30.350Z,11.60
2023-03-13T04:07:30.410Z,17.40
2023-03-13T04:08:30.348Z,13.40
2023-03-13T04:09:32.033Z,12.00
2023-03-13T04:10:30.308Z,15.20
2023-03-13T04:11:30.338Z,13.80
2023-03-13T04:12:30.299Z,13.90
2023-03-13T04:13:30.305Z,14.20
2023-03-13T04:14:30.267Z,18.30
2023-03-13T04:15:30.281Z,15.30
2023-03-13T04:16:30.316Z,15.70
2023-03-13T04:17:30.227Z,15.60
2023-03-13T04:18:30.227Z,15.10
2023-03-13T04:19:30.212Z,15.40
2023-03-13T04:20:30.225Z,12.00
2023-03-13T04:21:30.188Z,15.60
2023-03-13T04:22:30.173Z,9.50
2023-03-13T04:23:30.195Z,12.80
2023-03-13T04:24:30.155Z,14.50
2023-03-13T04:25:30.140Z,12.50
2023-03-13T04:26:30.132Z,14.80
2023-03-13T04:27:30.139Z,12.50
2023-03-13T04:28:30.136Z,14.10
2023-03-13T04:29:30.112Z,13.60
2023-03-13T04:30:30.136Z,15.90
2023-03-13T04:31:30.104Z,13.20
2023-03-13T04:32:30.115Z,13.10
2023-03-13T04:33:30.071Z,12.10
2023-03-13T04:34:30.041Z,14.60
2023-03-13T04:35:30.088Z,13.50
2023-03-13T04:36:30.025Z,17.50
2023-03-13T04:37:30.018Z,16.10
2023-03-13T04:38:30.034Z,14.50
2023-03-13T04:39:32.668Z,12.80
2023-03-13T04:40:29.986Z,15.70
2023-03-13T04:41:29.972Z,14.70
2023-03-13T04:42:29.988Z,15.90
2023-03-13T04:43:29.994Z,16.50
2023-03-13T04:44:29.932Z,13.00
2023-03-13T04:45:29.922Z,15.50
2023-03-13T04:46:29.978Z,13.60
2023-03-13T04:47:29.904Z,14.00
2023-03-13T04:48:29.906Z,13.80
2023-03-13T04:49:29.876Z,15.90
2023-03-13T04:50:29.862Z,13.50
2023-03-13T04:51:29.858Z,17.00
2023-03-13T04:52:29.877Z,13.30
2023-03-13T04:53:29.849Z,15.00
2023-03-13T04:54:29.837Z,11.20
2023-03-13T04:55:29.807Z,16.20
2023-03-13T04:56:42.708Z,14.00
2023-03-13T04:57:30.811Z,11.40
2023-03-13T04:58:29.775Z,11.00
2023-03-13T04:59:29.817Z,16.00
2023-03-13T05:00:29.776Z,14.00
2023-03-13T05:01:29.808Z,18.60
2023-03-13T05:02:29.754Z,13.00
2023-03-13T05:03:29.738Z,16.40
2023-03-13T05:04:29.750Z,13.90
2023-03-13T05:05:29.802Z,15.30
2023-03-13T05:06:29.689Z,12.10
2023-03-13T05:07:29.674Z,12.90
2023-03-13T05:08:29.686Z,16.40
2023-03-13T05:09:29.653Z,13.70
2023-03-13T05:10:29.659Z,14.10
2023-03-13T05:11:29.640Z,12.00
2023-03-13T05:12:29.617Z,15.00
2023-03-13T05:13:29.625Z,13.60
2023-03-13T05:14:29.600Z,11.70
2023-03-13T05:15:29.612Z,12.00
2023-03-13T05:16:29.644Z,10.70
2023-03-13T05:17:29.594Z,14.80
2023-03-13T05:18:29.587Z,13.90
2023-03-13T05:19:29.558Z,13.10
2023-03-13T05:20:29.550Z,13.90
2023-03-13T05:21:29.599Z,13.10
2023-03-13T05:22:29.529Z,12.20
2023-03-13T05:23:29.556Z,11.60
2023-03-13T05:24:29.502Z,10.10
2023-03-13T05:25:29.554Z,14.10
2023-03-13T05:26:29.494Z,14.40
2023-03-13T05:27:29.505Z,11.00
2023-03-13T05:28:29.454Z,12.80
2023-03-13T05:29:29.530Z,13.70
2023-03-13T05:30:29.467Z,12.30
2023-03-13T05:31:29.612Z,14.00
2023-03-13T05:32:29.466Z,13.30
2023-03-13T05:33:29.396Z,12.80
2023-03-13T05:34:29.384Z,13.00
2023-03-13T05:35:29.454Z,13.20
2023-03-13T05:36:29.378Z,14.50
2023-03-13T05:37:29.441Z,10.10
2023-03-13T05:38:29.341Z,10.70
2023-03-13T05:39:29.391Z,10.80
2023-03-13T05:40:29.337Z,11.60
2023-03-13T05:41:29.306Z,15.10
2023-03-13T05:42:29.342Z,12.40
2023-03-13T05:43:29.330Z,9.10
2023-03-13T05:44:29.296Z,11.50
2023-03-13T05:45:29.278Z,10.00
2023-03-13T05:46:29.344Z,12.00
2023-03-13T05:47:29.262Z,12.90
2023-03-13T05:48:29.308Z,12.40
2023-03-13T05:49:29.327Z,7.10
2023-03-13T05:50:29.254Z,6.80
2023-03-13T05:51:29.221Z,6.40
2023-03-13T05:52:29.176Z,5.20
2023-03-13T05:53:29.166Z,6.30
2023-03-13T05:54:29.168Z,7.50
2023-03-13T05:55:29.146Z,5.90
2023-03-13T05:56:29.152Z,6.60
2023-03-13T05:57:29.203Z,5.60
2023-03-13T05:58:29.121Z,5.60
2023-03-13T05:59:29.128Z,6.80
2023-03-13T06:00:29.119Z,6.80
2023-03-13T06:01:29.095Z,5.10
2023-03-13T06:02:29.077Z,5.90
2023-03-13T06:03:29.221Z,6.40
2023-03-13T06:04:29.200Z,5.50
2023-03-13T06:05:29.173Z,5.30
2023-03-13T06:06:29.017Z,6.80
2023-03-13T06:07:29.033Z,5.40
2023-03-13T06:08:29.028Z,9.20
2023-03-13T06:09:29.005Z,7.80
2023-03-13T06:10:28.988Z,6.80
2023-03-13T06:11:28.992Z,5.20
2023-03-13T06:12:28.977Z,7.10
2023-03-13T06:13:28.934Z,5.80
2023-03-13T06:14:28.953Z,5.70
2023-03-13T06:15:28.910Z,6.00
2023-03-13T06:16:28.976Z,5.70
2023-03-13T06:17:28.897Z,5.60
2023-03-13T06:18:28.880Z,6.90
2023-03-13T06:19:28.940Z,8.80
2023-03-13T06:20:28.853Z,7.50
2023-03-13T06:21:28.857Z,5.70
2023-03-13T06:22:28.830Z,5.70
2023-03-13T06:23:28.849Z,5.40
2023-03-13T06:24:28.830Z,5.50
2023-03-13T06:25:28.826Z,6.50
2023-03-13T06:26:28.798Z,6.40
2023-03-13T06:27:28.788Z,6.20
2023-03-13T06:28:28.797Z,7.20
2023-03-13T06:29:28.800Z,4.70
2023-03-13T06:30:28.783Z,6.60
2023-03-13T06:31:28.759Z,5.70
2023-03-13T06:32:29.054Z,5.50
2023-03-13T06:33:28.839Z,7.50
2023-03-13T06:34:28.709Z,5.40
2023-03-13T06:35:28.747Z,6.40
2023-03-13T06:36:28.754Z,6.70
2023-03-13T06:37:28.681Z,7.70
2023-03-13T06:38:28.698Z,6.30
2023-03-13T06:39:28.662Z,6.60
2023-03-13T06:40:28.671Z,5.00
2023-03-13T06:41:28.695Z,4.90
2023-03-13T06:42:28.638Z,5.80
2023-03-13T06:43:28.694Z,7.20
2023-03-13T06:44:28.600Z,4.80
2023-03-13T06:45:28.605Z,5.60
2023-03-13T06:46:28.637Z,4.80
2023-03-13T06:47:28.555Z,4.90
2023-03-13T06:48:28.565Z,4.80
2023-03-13T06:49:28.547Z,5.00
2023-03-13T06:50:28.576Z,5.50
2023-03-13T06:51:28.537Z,4.20
2023-03-13T06:52:37.779Z,6.20
2023-03-13T06:53:29.500Z,4.70
2023-03-13T06:54:28.489Z,5.00
2023-03-13T06:55:28.505Z,6.00
2023-03-13T06:56:28.470Z,5.70
2023-03-13T06:57:28.487Z,4.90
2023-03-13T06:58:32.600Z,4.10
2023-03-13T06:59:28.499Z,4.00
2023-03-13T07:00:28.585Z,4.90
2023-03-13T07:01:28.595Z,5.50
2023-03-13T07:02:28.445Z,7.20
2023-03-13T07:03:28.426Z,3.70
2023-03-13T07:04:28.389Z,5.70
2023-03-13T07:05:28.373Z,3.50
2023-03-13T07:06:28.405Z,3.40
2023-03-13T07:07:32.347Z,4.80
2023-03-13T07:08:28.339Z,4.60
2023-03-13T07:09:28.329Z,4.80
2023-03-13T07:10:28.340Z,3.20
2023-03-13T07:11:28.307Z,4.30
2023-03-13T07:12:28.314Z,4.00
2023-03-13T07:13:28.270Z,3.70
2023-03-13T07:14:28.273Z,5.20
2023-03-13T07:15:28.283Z,3.90
2023-03-13T07:16:28.284Z,3.00
2023-03-13T07:17:28.291Z,4.20
2023-03-13T07:18:28.259Z,5.10
2023-03-13T07:19:28.215Z,6.10
2023-03-13T07:20:28.314Z,4.50
2023-03-13T07:21:28.202Z,3.80
2023-03-13T07:22:28.214Z,5.60
2023-03-13T07:23:28.186Z,5.50
2023-03-13T07:24:35.224Z,4.90
2023-03-13T07:25:28.139Z,3.70
2023-03-13T07:26:28.195Z,4.30
2023-03-13T07:27:28.187Z,3.40
2023-03-13T07:28:28.145Z,4.10
2023-03-13T07:29:28.121Z,4.50
2023-03-13T07:30:28.127Z,3.50
2023-03-13T07:31:28.199Z,3.90
2023-03-13T07:32:28.149Z,3.10
2023-03-13T07:33:28.051Z,4.90
2023-03-13T07:34:28.070Z,3.50
2023-03-13T07:35:28.026Z,4.30
2023-03-13T07:36:28.134Z,7.10
2023-03-13T07:37:28.009Z,4.80
2023-03-13T07:38:28.003Z,5.00
2023-03-13T07:39:28.039Z,5.10
2023-03-13T07:40:28.072Z,3.10
2023-03-13T07:41:27.958Z,3.80
2023-03-13T07:42:27.960Z,6.10
2023-03-13T07:43:27.948Z,3.20
2023-03-13T07:44:27.932Z,4.90
2023-03-13T07:45:27.989Z,2.50
2023-03-13T07:46:27.897Z,4.20
2023-03-13T07:47:27.941Z,4.60
2023-03-13T07:48:27.903Z,2.40
2023-03-13T07:49:27.871Z,5.00
2023-03-13T07:50:28.190Z,3.60
2023-03-13T07:51:42.543Z,3.40
2023-03-13T07:52:28.854Z,3.10
2023-03-13T07:53:27.877Z,3.80
2023-03-13T07:54:27.820Z,4.30
2023-03-13T07:55:27.836Z,3.70
2023-03-13T07:56:27.785Z,3.90
2023-03-13T07:57:27.801Z,4.90
2023-03-13T07:58:27.785Z,4.30
2023-03-13T07:59:27.785Z,4.60
2023-03-13T08:00:27.744Z,4.80
2023-03-13T08:01:30.488Z,5.00
2023-03-13T08:02:27.866Z,2.90
2023-03-13T08:03:27.759Z,3.00
2023-03-13T08:04:27.724Z,3.50
2023-03-13T08:05:27.686Z,3.70
2023-03-13T08:06:27.726Z,4.40
2023-03-13T08:07:27.676Z,4.10
2023-03-13T08:08:27.670Z,4.80
2023-03-13T08:09:27.715Z,3.50
2023-03-13T08:10:27.708Z,3.30
2023-03-13T08:11:27.664Z,3.80
2023-03-13T08:12:27.609Z,4.90
2023-03-13T08:13:27.599Z,3.40
2023-03-13T08:14:27.601Z,3.00
2023-03-13T08:15:27.569Z,4.30
2023-03-13T08:16:27.709Z,4.30
2023-03-13T08:17:27.552Z,2.70
2023-03-13T08:18:27.558Z,5.10
2023-03-13T08:19:27.532Z,4.10
2023-03-13T08:20:27.515Z,4.30
2023-03-13T08:21:27.516Z,2.70
2023-03-13T08:22:27.504Z,3.00
2023-03-13T08:23:27.502Z,3.30
2023-03-13T08:24:27.509Z,2.80
2023-03-13T08:25:27.483Z,3.50
2023-03-13T08:26:27.458Z,5.00
2023-03-13T08:27:27.459Z,3.90
2023-03-13T08:28:27.450Z,3.00
2023-03-13T08:29:27.414Z,3.90
2023-03-13T08:30:27.550Z,4.20
2023-03-13T08:31:27.388Z,4.50
2023-03-13T08:32:27.429Z,3.10
2023-03-13T08:33:27.390Z,3.20
2023-03-13T08:34:27.422Z,3.40
2023-03-13T08:35:27.401Z,4.20
2023-03-13T08:36:27.353Z,3.10
2023-03-13T08:37:27.324Z,3.80
2023-03-13T08:38:27.315Z,4.40
2023-03-13T08:39:27.328Z,3.10
2023-03-13T08:40:27.298Z,4.20
2023-03-13T08:41:27.276Z,2.50
2023-03-13T08:42:27.271Z,4.00
2023-03-13T08:43:27.283Z,3.70
2023-03-13T08:44:27.276Z,3.20
2023-03-13T08:45:27.236Z,3.60
2023-03-13T08:46:27.323Z,3.60
2023-03-13T08:47:27.210Z,4.20
2023-03-13T08:48:27.226Z,3.60
2023-03-13T08:49:27.213Z,2.50
2023-03-13T08:50:27.183Z,3.50
2023-03-13T08:51:27.171Z,3.00
2023-03-13T08:52:27.164Z,3.60
2023-03-13T08:53:27.148Z,4.30
2023-03-13T08:54:27.171Z,2.60
2023-03-13T08:55:27.141Z,5.80
2023-03-13T08:56:27.142Z,3.80
2023-03-13T08:57:27.113Z,3.10
2023-03-13T08:58:27.111Z,3.00
2023-03-13T08:59:27.109Z,3.50
2023-03-13T09:00:27.093Z,3.90
2023-03-13T09:01:27.067Z,2.50
2023-03-13T09:02:27.132Z,2.30
2023-03-13T09:03:27.143Z,4.00
2023-03-13T09:04:27.029Z,3.60
2023-03-13T09:05:27.018Z,2.60
2023-03-13T09:06:27.009Z,4.40
2023-03-13T09:07:27.000Z,3.20
2023-03-13T09:08:27.013Z,3.50
2023-03-13T09:09:26.981Z,2.60
2023-03-13T09:10:26.958Z,2.40
2023-03-13T09:11:26.977Z,3.60
2023-03-13T09:12:31.204Z,3.50
2023-03-13T09:13:26.970Z,3.00
2023-03-13T09:14:26.924Z,2.90
2023-03-13T09:15:27.048Z,2.90
2023-03-13T09:16:26.898Z,2.30
2023-03-13T09:17:26.897Z,3.00
2023-03-13T09:18:26.932Z,1.90
2023-03-13T09:19:26.875Z,2.30
2023-03-13T09:20:26.885Z,3.20
2023-03-13T09:21:26.923Z,2.90
2023-03-13T09:22:26.829Z,2.50
2023-03-13T09:23:26.813Z,2.30
2023-03-13T09:24:26.903Z,1.60
2023-03-13T09:25:26.798Z,1.70
2023-03-13T09:26:26.804Z,2.50
2023-03-13T09:27:26.801Z,2.30
2023-03-13T09:28:26.763Z,1.70
2023-03-13T09:29:26.991Z,2.60
2023-03-13T09:30:26.746Z,1.50
2023-03-13T09:31:26.907Z,2.70
2023-03-13T09:32:26.806Z,2.10
2023-03-13T09:33:26.715Z,3.30
2023-03-13T09:34:26.698Z,2.30
2023-03-13T09:35:26.684Z,3.20
2023-03-13T09:36:26.746Z,1.70
2023-03-13T09:37:26.667Z,3.10
2023-03-13T09:38:26.650Z,2.10
2023-03-13T09:39:26.654Z,4.40
2023-03-13T09:40:26.637Z,1.30
2023-03-13T09:41:26.614Z,1.60
2023-03-13T09:42:26.639Z,3.00
2023-03-13T09:43:26.604Z,2.10
2023-03-13T09:44:26.625Z,2.40
2023-03-13T09:45:26.600Z,1.70
2023-03-13T09:46:26.671Z,1.40
2023-03-13T09:47:26.579Z,2.30
2023-03-13T09:48:26.565Z,2.20
2023-03-13T09:49:26.536Z,2.20
2023-03-13T09:50:26.541Z,2.10
2023-03-13T09:51:26.506Z,1.40
2023-03-13T09:52:26.545Z,1.80
2023-03-13T09:53:26.484Z,2.90
2023-03-13T09:54:26.480Z,2.40
2023-03-13T09:55:26.454Z,2.50
2023-03-13T09:56:26.447Z,2.20
2023-03-13T09:57:26.459Z,2.50
2023-03-13T09:58:26.431Z,2.30
2023-03-13T09:59:26.418Z,2.60
2023-03-13T10:00:26.427Z,1.80
2023-03-13T10:01:26.439Z,2.20
2023-03-13T10:02:26.420Z,1.90
2023-03-13T10:03:26.402Z,1.50
2023-03-13T10:04:26.445Z,1.90
2023-03-13T10:05:26.354Z,3.10
2023-03-13T10:06:26.365Z,3.70
2023-03-13T10:07:26.327Z,1.70
2023-03-13T10:08:26.338Z,1.50
2023-03-13T10:09:26.302Z,1.90
2023-03-13T10:10:26.306Z,1.50
2023-03-13T10:11:26.298Z,2.20
2023-03-13T10:12:26.268Z,1.70
2023-03-13T10:13:26.259Z,1.90
2023-03-13T10:14:26.244Z,1.80
2023-03-13T10:15:26.252Z,1.60
2023-03-13T10:16:26.253Z,1.60
2023-03-13T10:17:26.219Z,0.90
2023-03-13T10:18:26.199Z,1.70
2023-03-13T10:19:26.210Z,1.90
2023-03-13T10:20:26.210Z,2.10
2023-03-13T10:21:26.164Z,2.60
2023-03-13T10:22:26.187Z,1.40
2023-03-13T10:23:26.169Z,2.80
2023-03-13T10:24:26.168Z,1.50
2023-03-13T10:25:26.129Z,1.50
2023-03-13T10:26:26.131Z,1.70
2023-03-13T10:27:26.103Z,2.90
2023-03-13T10:28:26.117Z,1.80
2023-03-13T10:29:26.108Z,1.70
2023-03-13T10:30:26.064Z,1.40
2023-03-13T10:31:26.108Z,2.00
2023-03-13T10:32:26.096Z,2.90
2023-03-13T10:33:26.035Z,2.80
2023-03-13T10:34:26.041Z,1.80
2023-03-13T10:35:26.135Z,2.10
2023-03-13T10:36:26.000Z,2.20
2023-03-13T10:37:26.019Z,2.90
2023-03-13T10:38:25.985Z,1.60
2023-03-13T10:39:25.995Z,1.80
2023-03-13T10:40:25.993Z,1.70
2023-03-13T10:41:25.941Z,2.50
2023-03-13T10:42:25.933Z,3.90
2023-03-13T10:43:25.924Z,2.10
2023-03-13T10:44:25.922Z,2.20
2023-03-13T10:45:25.923Z,2.30
2023-03-13T10:46:25.924Z,2.20
2023-03-13T10:47:25.875Z,3.10
2023-03-13T10:48:25.870Z,2.80
2023-03-13T10:49:25.873Z,2.00
2023-03-13T10:50:25.883Z,3.30
2023-03-13T10:51:25.870Z,3.70
2023-03-13T10:52:25.882Z,2.40
2023-03-13T10:53:25.814Z,3.10
2023-03-13T10:54:25.823Z,2.00
2023-03-13T10:55:25.783Z,3.90
2023-03-13T10:56:25.782Z,2.70
2023-03-13T10:57:25.795Z,3.20
2023-03-13T10:58:25.766Z,1.40
2023-03-13T10:59:25.742Z,2.20
2023-03-13T11:00:25.738Z,2.20
2023-03-13T11:01:25.752Z,2.60
2023-03-13T11:02:25.772Z,1.80
2023-03-13T11:03:25.839Z,3.80
2023-03-13T11:04:25.685Z,3.30
2023-03-13T11:05:25.674Z,4.00
2023-03-13T11:06:25.660Z,2.70
2023-03-13T11:07:25.688Z,1.60
2023-03-13T11:08:25.718Z,2.60
2023-03-13T11:09:25.636Z,2.70
2023-03-13T11:10:25.616Z,1.90
2023-03-13T11:11:25.607Z,2.70
2023-03-13T11:12:25.595Z,2.90
2023-03-13T11:13:36.093Z,2.60
2023-03-13T11:14:26.647Z,2.20
2023-03-13T11:15:25.621Z,3.90
2023-03-13T11:16:25.616Z,1.70
2023-03-13T11:17:25.555Z,2.30
2023-03-13T11:18:25.532Z,3.60
2023-03-13T11:19:25.517Z,2.50
2023-03-13T11:20:25.528Z,1.90
2023-03-13T11:21:25.527Z,2.20
2023-03-13T11:22:25.528Z,3.30
2023-03-13T11:23:25.528Z,3.00
2023-03-13T11:24:25.484Z,1.70
2023-03-13T11:25:25.475Z,2.30
2023-03-13T11:26:25.480Z,1.70
2023-03-13T11:27:25.452Z,2.00
2023-03-13T11:28:25.453Z,2.30
2023-03-13T11:29:25.460Z,2.20
2023-03-13T11:30:25.419Z,1.90
2023-03-13T11:31:25.435Z,2.40
2023-03-13T11:32:25.424Z,3.90
2023-03-13T11:33:25.364Z,1.70
2023-03-13T11:34:25.362Z,3.40
2023-03-13T11:35:25.346Z,2.20
2023-03-13T11:36:25.374Z,3.10
2023-03-13T11:37:25.315Z,1.40
2023-03-13T11:38:25.321Z,2.50
2023-03-13T11:39:25.407Z,1.70
2023-03-13T11:40:25.291Z,1.60
2023-03-13T11:41:25.296Z,3.00
2023-03-13T11:42:25.282Z,3.50
2023-03-13T11:43:26.121Z,2.20
2023-03-13T11:44:25.262Z,1.60
2023-03-13T11:45:25.243Z,3.20
2023-03-13T11:46:25.417Z,2.80
2023-03-13T11:47:25.241Z,2.60
2023-03-13T11:48:25.243Z,1.90
2023-03-13T11:49:25.199Z,2.80
2023-03-13T11:50:25.175Z,4.00
2023-03-13T11:51:25.180Z,3.10
2023-03-13T11:52:25.153Z,2.20
2023-03-13T11:53:25.210Z,2.60
2023-03-13T11:54:25.166Z,1.70
2023-03-13T11:55:25.164Z,2.10
2023-03-13T11:56:25.105Z,2.60
2023-03-13T11:57:25.149Z,3.20
2023-03-13T11:58:25.170Z,3.30
2023-03-13T11:59:25.078Z,3.10
2023-03-13T12:00:25.059Z,2.20
2023-03-13T12:01:25.048Z,2.90
2023-03-13T12:02:25.174Z,2.00
2023-03-13T12:03:25.037Z,2.50
2023-03-13T12:04:25.028Z,1.50
2023-03-13T12:05:25.123Z,2.80
2023-03-13T12:06:28.201Z,2.40
2023-03-13T12:07:24.983Z,2.80
2023-03-13T12:08:24.994Z,1.50
2023-03-13T12:09:27.187Z,2.10
2023-03-13T12:10:24.978Z,2.90
2023-03-13T12:11:24.970Z,2.50
2023-03-13T12:12:24.932Z,1.80
2023-03-13T12:13:24.940Z,2.10
2023-03-13T12:14:24.925Z,1.80
2023-03-13T12:15:24.901Z,2.40
2023-03-13T12:16:24.930Z,2.80
2023-03-13T12:17:24.924Z,2.60
2023-03-13T12:18:24.887Z,1.80
2023-03-13T12:19:24.855Z,3.10
2023-03-13T12:20:24.841Z,1.40
2023-03-13T12:21:24.839Z,2.60
2023-03-13T12:22:24.823Z,2.00
2023-03-13T12:23:24.897Z,4.10
2023-03-13T12:24:24.812Z,1.70
2023-03-13T12:25:24.873Z,3.00
2023-03-13T12:26:24.869Z,1.40
2023-03-13T12:27:24.797Z,3.50
2023-03-13T12:28:24.834Z,5.00
2023-03-13T12:29:24.736Z,2.30
2023-03-13T12:30:24.792Z,2.40
2023-03-13T12:31:24.725Z,2.00
2023-03-13T12:32:24.770Z,1.60
2023-03-13T12:33:24.722Z,1.60
2023-03-13T12:34:24.712Z,1.50
2023-03-13T12:35:24.831Z,2.80
2023-03-13T12:36:24.713Z,2.00
2023-03-13T12:37:24.653Z,2.50
2023-03-13T12:38:24.640Z,2.30
2023-03-13T12:39:24.657Z,3.50
2023-03-13T12:40:24.617Z,3.00
2023-03-13T12:41:24.618Z,2.10
2023-03-13T12:42:24.615Z,2.10
2023-03-13T12:43:24.622Z,1.70
2023-03-13T12:44:24.604Z,2.30
2023-03-13T12:45:24.744Z,2.70
2023-03-13T12:46:24.632Z,1.90
2023-03-13T12:47:26.929Z,4.30
2023-03-13T12:48:24.641Z,3.70
2023-03-13T12:49:24.545Z,3.70
2023-03-13T12:50:24.527Z,2.50
2023-03-13T12:51:24.529Z,1.70
2023-03-13T12:52:24.526Z,1.40
2023-03-13T12:53:24.514Z,2.50
2023-03-13T12:54:24.487Z,3.70
2023-03-13T12:55:24.510Z,2.90
2023-03-13T12:56:24.471Z,1.90
2023-03-13T12:57:24.493Z,3.30
2023-03-13T12:58:24.420Z,1.50
2023-03-13T12:59:24.479Z,3.70
2023-03-13T13:00:24.430Z,2.20
2023-03-13T13:01:24.486Z,3.20
2023-03-13T13:02:24.373Z,3.00
2023-03-13T13:03:24.369Z,1.70
2023-03-13T13:04:24.382Z,1.60
2023-03-13T13:05:24.347Z,2.10
2023-03-13T13:06:24.351Z,1.00